Time;durP1;ratioP1;P1;durP2;ratioP2;P2;SDS_P1;SDS_P2;PMS_P1;PMS_P2;Temp;Humidity;BMP_temperature;BMP_pressure;BME280_temperature;BME280_humidity;BME280_pressure;Samples;Min_cycle;Max_cycle;Signal;HPM_P1;HPM_P2
2022/11/24 17:01:07;;;;;;;10.60;8.40;;;;;;;13.66;66.76;99780.70;106883;1296;22284;-61
2022/11/24 17:03:36;;;;;;;11.40;8.20;;;;;;;13.57;67.02;99784.16;106991;1289;21941;-61
2022/11/24 17:06:03;;;;;;;9.80;7.60;;;;;;;13.59;66.92;99784.27;107084;1295;21944;-68
2022/11/24 17:08:30;;;;;;;12.00;10.70;;;;;;;13.58;66.45;99785.20;107112;1295;21950;-61
2022/11/24 17:13:37;;;;;;;8.50;7.60;;;;;;;11.91;71.00;99795.05;105389;1306;547844;-71
2022/11/24 17:16:13;;;;;;;9.10;7.80;;;;;;;13.29;67.86;99789.14;105485;1312;22783;-70
2022/11/24 17:18:39;;;;;;;9.50;7.60;;;;;;;13.40;67.20;99790.36;105571;1311;22470;-72
2022/11/24 17:21:06;;;;;;;8.70;6.50;;;;;;;13.43;67.02;99787.48;105543;1311;21968;-71
2022/11/24 17:23:32;;;;;;;7.70;5.60;;;;;;;13.46;66.70;99792.13;105513;1311;21971;-71
2022/11/24 17:26:01;;;;;;;7.30;5.60;;;;;;;13.44;66.66;99794.65;105325;1307;415234;-70
2022/11/24 17:28:27;;;;;;;8.50;5.90;;;;;;;13.48;66.55;99796.11;105832;1299;21984;-74
2022/11/24 17:30:55;;;;;;;8.00;5.70;;;;;;;13.55;66.33;99797.46;105897;1307;23211;-72
2022/11/24 17:33:22;;;;;;;9.50;6.30;;;;;;;13.51;66.27;99801.29;106064;1304;22008;-72
2022/11/24 17:35:48;;;;;;;8.70;6.40;;;;;;;13.58;65.92;99801.05;106039;1304;21969;-71
2022/11/24 17:38:14;;;;;;;7.90;6.00;;;;;;;13.56;66.04;99799.35;106084;1304;21965;-71
2022/11/24 17:40:46;;;;;;;8.20;5.70;;;;;;;13.49;66.08;99801.70;106021;1304;23617;-72
2022/11/24 17:43:12;;;;;;;7.20;5.10;;;;;;;13.45;66.07;99799.58;105853;1305;21977;-70
2022/11/24 17:45:38;;;;;;;8.10;5.40;;;;;;;13.40;66.32;99799.89;106011;1304;22738;-72
2022/11/24 17:48:04;;;;;;;9.70;6.50;;;;;;;13.34;66.46;99795.66;106018;1296;21961;-72
2022/11/24 17:50:30;;;;;;;9.40;7.10;;;;;;;13.26;66.59;99791.17;105803;1301;23637;-72
2022/11/24 17:52:56;;;;;;;9.10;6.80;;;;;;;13.17;66.68;99787.74;104395;1307;1003214;-72
2022/11/24 17:55:22;;;;;;;8.70;6.30;;;;;;;13.01;67.25;99789.32;106031;1304;22006;-72
2022/11/24 17:57:49;;;;;;;8.00;6.20;;;;;;;13.11;67.10;99787.42;106056;1304;23602;-73
2022/11/24 18:00:16;;;;;;;10.70;6.50;;;;;;;13.14;66.98;99790.67;105832;1305;23630;-72
2022/11/24 18:02:42;;;;;;;7.60;5.70;;;;;;;13.14;66.94;99787.87;106113;1304;23065;-73
2022/11/24 18:05:08;;;;;;;8.30;6.40;;;;;;;13.12;67.13;99789.33;105946;1305;21963;-72
2022/11/24 18:07:35;;;;;;;9.60;7.70;;;;;;;13.14;67.19;99788.90;106043;1303;22136;-73
2022/11/24 18:10:02;;;;;;;13.70;10.60;;;;;;;13.19;66.98;99795.43;106070;1304;22487;-73
2022/11/24 18:12:28;;;;;;;15.60;10.80;;;;;;;13.20;66.71;99797.17;105491;1304;1002336;-72
2022/11/24 18:14:54;;;;;;;25.60;16.80;;;;;;;13.20;66.66;99795.23;105872;1304;23634;-70
2022/11/24 18:17:21;;;;;;;22.50;14.00;;;;;;;13.21;66.57;99794.67;105900;1292;23091;-71
2022/11/24 18:19:47;;;;;;;14.30;9.40;;;;;;;13.11;66.62;99799.05;105889;1305;23621;-71
2022/11/24 18:22:13;;;;;;;11.80;6.80;;;;;;;12.99;66.96;99799.60;106036;1304;22104;-71
2022/11/24 18:24:39;;;;;;;9.90;6.10;;;;;;;12.89;67.22;99799.39;106051;1304;21967;-71
2022/11/24 18:27:05;;;;;;;6.80;5.30;;;;;;;12.76;67.39;99799.40;106069;1304;21981;-71
2022/11/24 18:29:31;;;;;;;6.60;5.00;;;;;;;12.85;67.33;99800.71;106050;1304;23636;-71
2022/11/24 18:31:57;;;;;;;19.30;12.50;;;;;;;13.07;66.93;99804.45;107422;1304;21774;-69
2022/11/24 18:34:24;;;;;;;17.60;11.20;;;;;;;13.29;66.18;99806.92;107911;1307;21802;-68
2022/11/24 18:36:53;;;;;;;9.00;5.50;;;;;;;13.33;65.82;99806.61;106009;1305;22025;-70
2022/11/24 18:39:19;;;;;;;6.40;4.40;;;;;;;13.38;65.61;99804.86;105966;1304;21971;-69
2022/11/24 18:41:46;;;;;;;6.60;5.10;;;;;;;13.35;65.60;99806.89;106017;1304;21991;-70
2022/11/24 18:44:12;;;;;;;8.10;5.60;;;;;;;13.30;65.53;99809.70;105755;1307;22134;-69
2022/11/24 18:46:38;;;;;;;10.90;6.40;;;;;;;13.26;65.68;99810.17;105981;1304;21960;-69
2022/11/24 18:49:05;;;;;;;8.70;5.90;;;;;;;13.20;65.71;99806.85;105958;1304;21963;-70
2022/11/24 18:51:32;;;;;;;7.20;5.40;;;;;;;13.18;65.83;99811.86;105957;1304;21975;-70
2022/11/24 18:53:58;;;;;;;5.70;4.60;;;;;;;13.20;65.83;99812.84;105828;1307;23731;-70
2022/11/24 18:56:25;;;;;;;6.80;5.40;;;;;;;13.23;65.78;99811.53;105706;1307;23023;-70
2022/11/24 18:58:54;;;;;;;5.70;4.50;;;;;;;13.26;65.44;99813.90;105800;1305;23093;-74
2022/11/24 19:01:25;;;;;;;7.20;4.80;;;;;;;13.22;65.35;99814.39;106054;1304;22911;-73
2022/11/24 19:03:52;;;;;;;6.70;4.80;;;;;;;13.23;65.25;99819.09;106035;1299;21964;-69
2022/11/24 19:06:23;;;;;;;7.10;4.80;;;;;;;13.23;65.36;99821.38;105979;1299;23684;-71
2022/11/24 19:08:51;;;;;;;6.50;4.60;;;;;;;13.30;65.34;99823.45;106664;1302;22049;-72
2022/11/24 19:11:20;;;;;;;5.00;3.80;;;;;;;13.23;65.32;99821.73;105934;1304;21977;-71
2022/11/24 19:13:47;;;;;;;4.20;3.30;;;;;;;13.18;65.45;99822.25;105974;1304;21957;-70
2022/11/24 19:16:17;;;;;;;4.20;3.50;;;;;;;13.19;65.44;99821.17;105959;1305;21977;-71
2022/11/24 19:18:43;;;;;;;7.50;4.50;;;;;;;13.24;65.53;99823.30;105994;1302;21980;-70
2022/11/24 19:21:08;;;;;;;6.80;3.90;;;;;;;13.21;65.27;99827.80;106058;1304;23648;-69
2022/11/24 19:23:34;;;;;;;5.50;4.00;;;;;;;13.15;65.27;99828.70;105925;1304;21964;-72
2022/11/24 19:26:01;;;;;;;7.50;4.00;;;;;;;13.14;65.39;99829.41;106002;1304;23618;-72
2022/11/24 19:28:28;;;;;;;4.80;3.70;;;;;;;13.19;65.38;99834.38;106067;1304;23613;-71
2022/11/24 19:31:04;;;;;;;5.00;3.60;;;;;;;13.21;65.29;99834.85;105934;1305;22242;-70
2022/11/24 19:33:31;;;;;;;6.00;4.30;;;;;;;13.30;64.98;99833.13;105922;1304;21973;-72
2022/11/24 19:36:01;;;;;;;5.60;4.20;;;;;;;13.29;64.87;99831.59;105955;1304;23607;-71
2022/11/24 19:38:28;;;;;;;7.00;4.10;;;;;;;13.25;64.95;99832.77;105963;1308;23624;-70
2022/11/24 19:41:05;;;;;;;6.80;4.40;;;;;;;13.23;65.05;99835.46;106022;1304;22426;-71
2022/11/24 19:43:33;;;;;;;6.90;4.60;;;;;;;13.16;65.21;99835.02;105962;1304;23612;-70
2022/11/24 19:46:03;;;;;;;5.80;4.50;;;;;;;13.12;65.30;99836.36;105937;1304;22746;-70
2022/11/24 19:48:32;;;;;;;5.60;4.30;;;;;;;13.10;65.22;99837.29;105967;1302;21977;-71
2022/11/24 19:51:02;;;;;;;5.50;4.20;;;;;;;13.11;65.27;99836.91;105939;1307;21999;-70
2022/11/24 19:53:28;;;;;;;6.00;4.80;;;;;;;13.11;65.22;99837.27;105996;1306;22040;-70
2022/11/24 19:56:01;;;;;;;6.20;4.80;;;;;;;13.06;65.34;99839.17;106021;1295;21974;-69
2022/11/24 19:58:28;;;;;;;5.80;4.70;;;;;;;13.14;65.05;99839.46;106006;1304;21985;-70
2022/11/24 20:00:54;;;;;;;5.50;3.70;;;;;;;13.20;64.71;99836.64;105907;1307;21959;-71
2022/11/24 20:03:22;;;;;;;5.80;4.40;;;;;;;13.21;64.74;99840.81;105923;1303;22180;-70
2022/11/24 20:05:54;;;;;;;6.00;4.30;;;;;;;13.18;64.60;99840.91;105992;1307;21976;-69
2022/11/24 20:08:20;;;;;;;9.40;4.80;;;;;;;13.19;64.57;99843.18;106094;1306;22061;-71
2022/11/24 20:10:46;;;;;;;8.20;5.00;;;;;;;13.19;64.60;99843.53;106089;1304;22125;-71
2022/11/24 20:13:12;;;;;;;7.60;5.10;;;;;;;13.21;64.59;99844.34;106090;1307;23723;-68
2022/11/24 20:15:38;;;;;;;9.50;5.80;;;;;;;13.24;64.63;99853.08;106086;1301;21964;-71
2022/11/24 20:18:04;;;;;;;9.30;5.80;;;;;;;13.20;64.68;99859.36;105961;1304;24376;-71
2022/11/24 20:20:31;;;;;;;12.00;6.60;;;;;;;13.13;64.72;99856.94;105902;1308;23695;-71
2022/11/24 20:22:57;;;;;;;11.50;7.40;;;;;;;13.08;64.61;99856.73;105946;1307;21972;-69
2022/11/24 20:25:23;;;;;;;11.20;7.50;;;;;;;13.06;64.67;99858.03;105872;1307;21965;-69
2022/11/24 20:27:49;;;;;;;11.30;7.20;;;;;;;13.00;64.66;99857.15;105912;1307;21974;-71
2022/11/24 20:30:15;;;;;;;12.20;8.20;;;;;;;12.97;64.63;99854.98;105942;1308;21963;-71
2022/11/24 20:32:41;;;;;;;11.70;6.80;;;;;;;12.98;64.56;99851.94;105943;1307;21961;-72
2022/11/24 20:35:07;;;;;;;11.80;7.20;;;;;;;12.96;64.50;99856.04;105898;1307;21968;-70
2022/11/24 20:37:33;;;;;;;20.30;10.70;;;;;;;12.91;64.47;99858.12;105973;1308;22067;-71
2022/11/24 20:40:01;;;;;;;13.30;7.60;;;;;;;12.89;64.53;99855.53;105916;1309;21976;-72
2022/11/24 20:42:30;;;;;;;38.30;17.10;;;;;;;12.86;64.41;99855.09;105966;1310;21945;-72
2022/11/24 20:44:59;;;;;;;21.30;11.60;;;;;;;12.83;64.48;99851.30;105718;1307;21964;-69
2022/11/24 20:47:26;;;;;;;7.30;5.00;;;;;;;12.78;64.49;99849.18;106147;1306;21963;-72
2022/11/24 20:49:52;;;;;;;7.90;5.20;;;;;;;12.73;64.59;99852.69;106073;1303;21941;-69
2022/11/24 20:52:18;;;;;;;6.10;4.30;;;;;;;12.70;64.53;99850.12;106059;1306;21967;-72
2022/11/24 20:54:45;;;;;;;8.10;5.30;;;;;;;12.71;64.46;99851.34;106148;1304;21983;-70
2022/11/24 20:57:11;;;;;;;6.70;4.50;;;;;;;12.72;64.23;99853.06;105942;1307;23741;-71
2022/11/24 20:59:37;;;;;;;6.80;5.40;;;;;;;12.73;64.09;99851.80;106002;1309;21968;-71
2022/11/24 21:02:03;;;;;;;5.70;4.90;;;;;;;12.68;63.99;99851.41;105951;1307;23745;-70
2022/11/24 21:04:28;;;;;;;7.00;5.10;;;;;;;12.42;64.51;99854.09;105743;1308;21955;-70
2022/11/24 21:06:54;;;;;;;7.00;4.40;;;;;;;12.31;64.87;99856.70;106083;1297;21962;-70
2022/11/24 21:09:21;;;;;;;5.90;4.40;;;;;;;12.31;64.77;99859.69;105909;1307;21984;-70
2022/11/24 21:11:47;;;;;;;8.40;5.50;;;;;;;12.23;64.82;99860.77;106105;1305;21950;-70
2022/11/24 21:14:13;;;;;;;6.00;3.60;;;;;;;12.19;64.86;99862.98;106206;1304;21960;-72
2022/11/24 21:16:39;;;;;;;5.40;4.00;;;;;;;12.03;65.14;99862.52;106112;1304;22590;-72
2022/11/24 21:19:07;;;;;;;4.40;3.40;;;;;;;11.95;65.18;99861.48;106104;1308;22005;-72
2022/11/24 21:21:34;;;;;;;4.90;3.90;;;;;;;11.92;65.29;99864.18;106054;1305;21971;-72
2022/11/24 21:24:10;;;;;;;6.40;4.50;;;;;;;11.91;65.27;99866.52;106149;1304;23633;-72
2022/11/24 21:26:37;;;;;;;5.90;4.40;;;;;;;11.88;65.24;99866.61;106160;1304;22664;-72
2022/11/24 21:29:02;;;;;;;5.40;4.20;;;;;;;11.89;65.30;99873.41;106186;1304;21963;-71
2022/11/24 21:31:28;;;;;;;5.30;3.90;;;;;;;11.89;65.25;99873.95;105382;1304;1002458;-68
2022/11/24 21:33:54;;;;;;;5.30;3.80;;;;;;;11.94;64.92;99875.05;106144;1305;21958;-68
2022/11/24 21:36:22;;;;;;;4.90;3.50;;;;;;;11.95;64.85;99876.95;106107;1305;21978;-69
2022/11/24 21:38:52;;;;;;;5.10;4.10;;;;;;;11.93;65.01;99876.83;106065;1304;22230;-68
2022/11/24 21:41:18;;;;;;;6.70;4.90;;;;;;;11.85;65.12;99879.49;106103;1304;22306;-70
2022/11/24 21:43:44;;;;;;;5.50;4.00;;;;;;;11.82;65.17;99877.46;106070;1299;22095;-68
2022/11/24 21:46:10;;;;;;;5.70;4.60;;;;;;;11.67;65.65;99876.95;106145;1304;21953;-71
2022/11/24 21:48:37;;;;;;;6.80;4.30;;;;;;;11.58;65.81;99878.23;105468;1304;1002571;-71
2022/11/24 21:51:08;;;;;;;5.90;4.10;;;;;;;11.51;65.83;99882.27;106166;1304;21970;-71
2022/11/24 21:53:35;;;;;;;5.80;4.70;;;;;;;11.46;66.03;99878.88;106169;1304;21975;-71
2022/11/24 21:56:08;;;;;;;5.50;4.40;;;;;;;11.50;66.07;99879.66;106162;1304;21954;-71
2022/11/24 21:58:35;;;;;;;5.10;4.00;;;;;;;11.41;66.22;99879.52;106213;1304;21972;-73
2022/11/24 22:01:01;;;;;;;4.80;3.70;;;;;;;11.40;66.04;99877.78;106205;1304;21961;-69
2022/11/24 22:03:27;;;;;;;5.30;3.70;;;;;;;11.40;66.14;99875.66;106198;1304;22011;-71
2022/11/24 22:05:57;;;;;;;5.30;4.20;;;;;;;11.35;66.34;99873.33;106235;1304;23628;-69
2022/11/24 22:08:23;;;;;;;5.90;4.10;;;;;;;11.35;66.14;99870.34;106109;1304;21962;-71
2022/11/24 22:10:51;;;;;;;5.90;4.20;;;;;;;11.35;66.14;99872.45;106171;1304;21966;-71
2022/11/24 22:13:17;;;;;;;7.40;4.10;;;;;;;11.33;66.36;99871.45;106126;1304;22800;-68
2022/11/24 22:15:43;;;;;;;4.60;3.20;;;;;;;11.31;66.32;99872.02;106153;1304;21957;-68
2022/11/24 22:18:09;;;;;;;5.20;3.90;;;;;;;11.30;66.08;99875.36;106149;1304;22008;-71
2022/11/24 22:20:37;;;;;;;6.10;4.40;;;;;;;11.28;65.89;99873.64;106176;1304;21959;-68
2022/11/24 22:23:03;;;;;;;5.60;4.20;;;;;;;11.23;65.91;99875.17;106192;1304;21970;-68
2022/11/24 22:25:29;;;;;;;6.20;4.40;;;;;;;11.19;66.07;99874.05;106145;1304;21976;-69
2022/11/24 22:27:55;;;;;;;4.90;3.90;;;;;;;11.19;66.04;99868.61;106077;1303;21983;-71
2022/11/24 22:30:21;;;;;;;5.50;4.10;;;;;;;11.17;66.10;99869.87;106107;1304;21967;-72
2022/11/24 22:32:47;;;;;;;6.60;4.70;;;;;;;11.03;66.36;99866.70;106146;1303;21960;-71
2022/11/24 22:35:13;;;;;;;6.30;4.70;;;;;;;11.06;66.20;99866.27;106111;1304;21958;-69
2022/11/24 22:37:38;;;;;;;6.70;5.00;;;;;;;11.20;65.88;99864.91;106232;1304;21980;-72
2022/11/24 22:40:05;;;;;;;6.30;4.90;;;;;;;11.15;65.82;99863.43;106171;1304;21962;-72
2022/11/24 22:42:32;;;;;;;6.40;4.20;;;;;;;11.13;65.74;99866.48;106162;1302;21960;-69
2022/11/24 22:44:57;;;;;;;5.10;3.80;;;;;;;11.09;65.82;99866.73;106120;1304;22014;-72
2022/11/24 22:47:23;;;;;;;4.50;3.30;;;;;;;10.99;66.02;99866.77;106102;1304;21965;-72
2022/11/24 22:49:49;;;;;;;5.00;3.40;;;;;;;10.88;66.41;99868.75;106100;1304;22153;-72
2022/11/24 22:52:16;;;;;;;6.30;3.70;;;;;;;10.82;66.62;99870.30;106103;1295;21969;-73
2022/11/24 22:54:41;;;;;;;5.90;4.00;;;;;;;10.82;66.53;99873.11;106251;1304;21977;-69
2022/11/24 22:57:07;;;;;;;4.80;3.60;;;;;;;10.91;66.19;99871.16;106144;1304;21971;-69
2022/11/24 22:59:33;;;;;;;7.40;4.00;;;;;;;11.00;65.89;99869.21;106217;1303;21969;-73
2022/11/24 23:01:58;;;;;;;5.20;3.70;;;;;;;11.04;65.85;99871.95;106143;1304;21964;-73
2022/11/24 23:04:24;;;;;;;5.50;4.10;;;;;;;11.05;65.79;99871.38;106175;1304;21975;-73
2022/11/24 23:06:50;;;;;;;5.70;3.80;;;;;;;11.09;65.66;99873.02;106104;1299;21972;-74
2022/11/24 23:09:16;;;;;;;5.20;3.30;;;;;;;11.05;65.57;99879.45;106107;1304;24944;-69
2022/11/24 23:11:45;;;;;;;5.00;3.10;;;;;;;11.01;65.78;99886.05;106151;1304;21965;-69
2022/11/24 23:14:15;;;;;;;5.60;3.70;;;;;;;11.01;65.51;99892.90;106121;1304;21953;-70
2022/11/24 23:16:41;;;;;;;5.10;3.30;;;;;;;10.97;65.66;99892.27;106137;1295;22005;-69
2022/11/24 23:19:07;;;;;;;5.10;3.20;;;;;;;11.01;65.58;99888.51;106106;1304;23154;-69
2022/11/24 23:21:35;;;;;;;14.60;5.10;;;;;;;11.05;65.64;99883.33;106055;1304;22004;-68
2022/11/24 23:24:01;;;;;;;5.30;3.70;;;;;;;11.05;65.58;99886.11;106171;1297;21962;-69
2022/11/24 23:26:35;;;;;;;5.80;3.40;;;;;;;11.05;65.63;99883.48;106103;1304;21991;-71
2022/11/24 23:29:01;;;;;;;4.50;3.30;;;;;;;11.05;65.57;99882.77;106102;1301;22008;-71
2022/11/24 23:31:27;;;;;;;5.50;3.70;;;;;;;11.09;65.67;99883.39;106153;1304;21960;-69
2022/11/24 23:33:54;;;;;;;4.40;3.20;;;;;;;11.13;65.65;99883.83;106116;1304;21970;-69
2022/11/24 23:36:20;;;;;;;5.30;3.80;;;;;;;11.18;65.65;99885.84;106148;1304;22001;-72
2022/11/24 23:38:46;;;;;;;5.10;3.50;;;;;;;11.21;65.67;99886.48;106192;1304;21958;-69
2022/11/24 23:41:14;;;;;;;6.00;3.30;;;;;;;11.22;65.46;99881.19;106221;1304;21959;-69
2022/11/24 23:43:40;;;;;;;4.60;3.20;;;;;;;11.26;65.16;99882.14;106234;1302;21978;-69
2022/11/24 23:46:13;;;;;;;7.10;3.10;;;;;;;11.28;65.35;99881.23;106134;1304;21957;-73
2022/11/24 23:48:38;;;;;;;4.80;3.30;;;;;;;11.27;65.41;99882.45;106091;1304;21963;-69
2022/11/24 23:51:40;;;;;;;4.90;3.30;;;;;;;11.33;65.47;99880.76;106130;1304;22008;-73
2022/11/24 23:54:07;;;;;;;5.00;3.30;;;;;;;11.36;65.47;99880.68;105550;1311;21968;-73
2022/11/24 23:56:33;;;;;;;5.30;3.30;;;;;;;11.34;65.39;99885.30;106033;1304;21957;-72
2022/11/24 23:59:00;;;;;;;5.00;2.80;;;;;;;11.34;65.35;99890.39;106122;1304;23631;-70
